• Join FlightAware (Why Join?)
  • Login
  • US Flag 
02:10PM EST


 

Airport Tracker/Info


-or-


 

Live Flight TrackerFlight Track Log ✈ KAL1109 ✈ 29-Aug-2014 ✈ RKSS / GMP - RKPK / PUS

Flight Track Log - Related Links

Times and Time Zones

All times are in EDT time to prevent confusion due to time zone crossing. See the KAL1109 flight status page for this flight to view local times or setup timezone preferences in your user account.

Time Position Orientation Groundspeed Altitude Reporting Facility
EDT Latitude Longitude Course Direction KTS MPH feet Rate Location/Type
10:23PM 37.5210 126.8406 138° Southeast 163 188 2,700  Level FlightAware ADS-B (RKSO / OSN)
10:23PM 37.5104 126.8531 136° Southeast 166 191 3,400 1,800 Climbing FlightAware ADS-B (RKSO / OSN)
10:24PM 37.4992 126.8642 151° Southeast 203 234 3,800 1,260 Climbing FlightAware ADS-B (RKSO / OSN)
10:24PM 37.4795 126.8745 163° South 240 276 4,200 1,020 Climbing FlightAware ADS-B (RKSO / OSN)
10:24PM 37.4527 126.8850 162° South 269 310 4,600 1,800 Climbing FlightAware ADS-B (RKSO / OSN)
10:25PM 37.4304 126.8938 162° South 275 316 5,500 2,040 Climbing FlightAware ADS-B (RKSO / OSN)
10:25PM 37.4041 126.9044 162° South 277 319 6,000 1,800 Climbing FlightAware ADS-B (RKSO / OSN)
10:26PM 37.3798 126.9150 158° South 280 322 6,800 2,580 Climbing FlightAware ADS-B (RKSO / OSN)
10:26PM 37.3547 126.9321 146° Southeast 286 329 7,800 3,000 Climbing FlightAware ADS-B (RKSO / OSN)
10:26PM 37.3317 126.9520 146° Southeast 289 333 8,900 3,000 Climbing FlightAware ADS-B (RKSO / OSN)
10:27PM 37.2861 126.9913 145° Southeast 306 352 10,900 1,560 Climbing FlightAware ADS-B (RKSO / OSN)
10:28PM 37.2363 127.0338 146° Southeast 347 399 11,000 900 Climbing FlightAware ADS-B (RKSO / OSN)
10:28PM 37.1803 127.0786 148° Southeast 356 410 12,100 1,440 Climbing FlightAware ADS-B (RKSO / OSN)
10:29PM 37.1207 127.1255 148° Southeast 362 417 13,000 780 Climbing FlightAware ADS-B (RKSO / OSN)
10:30PM 37.0350 127.1935 148° Southeast 365 420 13,500 1,440 Climbing FlightAware ADS-B (RKSO / OSN)
10:31PM 36.9753 127.2405 148° Southeast 377 434 15,500 2,820 Climbing FlightAware ADS-B (RKSO / OSN)
10:31PM 36.9116 127.2907 148° Southeast 393 452 17,500 2,640 Climbing FlightAware ADS-B (RKSO / OSN)
10:32PM 36.8562 127.3348 145° Southeast 408 470 19,100 2,640 Climbing FlightAware ADS-B (RKSO / OSN)
10:33PM 36.8004 127.3952 136° Southeast 419 482 21,000 1,380 Climbing FlightAware ADS-B (RKSO / OSN)
10:33PM 36.7361 127.4736 135° Southeast 433 498 21,000  Level FlightAware ADS-B (RKSO / OSN)
10:34PM 36.6800 127.5425 135° Southeast 431 496 21,000  Level FlightAware ADS-B (RKSO / OSN)
10:35PM 36.6231 127.6123 136° Southeast 429 494 21,000  Level FlightAware ADS-B (RKSO / OSN)
10:35PM 36.5652 127.6832 135° Southeast 429 494 21,000  Level FlightAware ADS-B (RKSO / OSN)
10:36PM 36.5051 127.7566 136° Southeast 429 494 21,000  Level FlightAware ADS-B (RKSO / OSN)
10:37PM 36.4483 127.8256 136° Southeast 428 493 21,000  Level FlightAware ADS-B (RKSO / OSN)
10:37PM 36.3908 127.8953 136° Southeast 426 490 21,000  Level FlightAware ADS-B (RKSO / OSN)
10:38PM 36.3325 127.9658 136° Southeast 426 490 21,000  Level FlightAware ADS-B (RKSO / OSN)
10:39PM 36.2808 128.0281 136° Southeast 428 493 21,000  Level FlightAware ADS-B (RKSO / OSN)
10:39PM 36.2245 128.0957 136° Southeast 431 496 21,000  Level FlightAware ADS-B (RKSO / OSN)
10:40PM 36.1622 128.1706 136° Southeast 431 496 21,000 -480 Level FlightAware ADS-B (RKSO / OSN)
10:41PM 36.0721 128.2753 143° Southeast 417 480 20,200 -1,080 Descending FlightAware ADS-B (RKSO / OSN)
10:42PM 36.0041 128.3195 158° South 394 453 19,200 -1,800 Descending FlightAware ADS-B (RKSO / OSN)
10:42PM 35.9388 128.3512 158° South 386 444 17,800 -1,980 Descending FlightAware ADS-B (RKSO / OSN)
10:43PM 35.8761 128.3817 158° South 374 430 16,600 -1,920 Descending FlightAware ADS-B (RKSO / OSN)
10:44PM 35.8154 128.4114 158° South 360 414 15,400 -2,100 Descending FlightAware ADS-B (RKSO / OSN)
10:46PM 35.6651 128.5368 146° Southeast  Level Estimated
10:47PM 35.5808 128.6069 146° Southeast  Level Estimated
10:48PM 35.4965 128.6769 146° Southeast  Level Estimated
10:49PM 35.4120 128.7468 146° Southeast  Level Estimated
10:50PM 35.3276 128.8165 146° Southeast  Level Estimated
10:51PM 35.2431 128.8860 146° Southeast  Level Estimated
10:52PM 35.1795 128.9382 146° Southeast  Level Estimated
10:53PM 35.1795 128.9382 North  Level Estimated
10:54PM 35.1795 128.9382 North  Level Estimated
10:55PM 35.1795 128.9382 North  Level Estimated
10:56PM 35.1795 128.9382 North  Level Estimated
10:57PM 35.1795 128.9382 North  Level Estimated
10:58PM 35.1795 128.9382 North  Level Estimated
10:59PM 35.1795 128.9382 North  Level Estimated
11:00PM 35.1795 128.9382 North  Level Estimated
11:01PM 35.1795 128.9382 North  Level Estimated
11:02PM 35.1795 128.9382 North  Level Estimated
11:03PM 35.1795 128.9382 North  Level Estimated
11:04PM 35.1795 128.9382 North  Level Estimated
11:05PM 35.1795 128.9382 North  Level Estimated
11:06PM 35.1795 128.9382 North  Level Estimated